This is the latest recevied weather packets stored in our database for station/object SR4DIG-13. If no packets are shown the sender has not sent any weather packets the latest 10 day(s).
| Time | Temp. | Humidity | Pressure | Rain* | Wind** | Luminosity | Snow |
|---|---|---|---|---|---|---|---|
| 1777215501 | 3.89° C | 68% | 1016.4 hPa | 1.78 mm | - | - | - |
| 1777215146 | 3.89° C | 67% | 1015.9 hPa | 1.78 mm | - | - | - |
| 1777214845 | 4.44° C | 66% | 1015.8 hPa | 1.78 mm | - | - | - |
| 1777214544 | 5° C | 64% | 1015.7 hPa | 1.78 mm | - | - | - |
| 1777214243 | 5.56° C | 64% | 1015.5 hPa | 1.78 mm | - | - | - |
| 1777213658 | 5.56° C | 65% | 1015.3 hPa | 1.78 mm | - | - | - |
| 1777213357 | 5° C | 66% | 1015.3 hPa | 1.78 mm | - | - | - |
| 1777213056 | 5° C | 65% | 1015.3 hPa | 1.78 mm | - | - | - |
| 1777212755 | 5° C | 63% | 1015.2 hPa | 1.78 mm | - | - | - |
| 1777212455 | 5° C | 63% | 1015.2 hPa | 1.78 mm | - | - | - |
| 1777212154 | 5° C | 59% | 1015.3 hPa | 1.78 mm | - | - | - |
| 1777211534 | 6.67° C | 56% | 1014.8 hPa | 1.78 mm | - | - | - |
| 1777211233 | 6.67° C | 56% | 1014.8 hPa | 1.78 mm | - | - | - |
| 1777210932 | 6.67° C | 56% | 1014.7 hPa | 1.78 mm | - | - | - |
| 1777210631 | 6.11° C | 56% | 1014.8 hPa | 1.78 mm | - | - | - |
| 1777209974 | 5.56° C | 60% | 1014.7 hPa | 1.78 mm | - | - | - |
| 1777209673 | 5° C | 62% | 1014.8 hPa | 1.78 mm | - | - | - |
| 1777209372 | 3.89° C | 64% | 1014.6 hPa | 1.78 mm | - | - | - |
| 1777209072 | 4.44° C | 60% | 1015.1 hPa | 1.78 mm | - | - | - |
| 1777208771 | 4.44° C | 59% | 1015.2 hPa | 1.78 mm | - | - | - |
| 1777208470 | 6.11° C | 53% | 1015.2 hPa | 1.78 mm | - | - | - |
| 1777208169 | 7.22° C | 44% | 1014.3 hPa | 1.78 mm | - | - | - |
| 1777207868 | 7.22° C | 44% | 1014.1 hPa | 1.78 mm | - | - | - |
| 1777207567 | 7.22° C | 45% | 1013.9 hPa | 1.78 mm | - | - | - |
| 1777207266 | 7.22° C | 45% | 1014 hPa | 1.78 mm | - | - | - |
* Rain since midnight (hover to see other rain measurements)
** Current wind speed in m/s (hover to see current wind gust speed)